Time;durP1;ratioP1;P1;durP2;ratioP2;P2;SDS_P1;SDS_P2;PMS_P1;PMS_P2;Temp;Humidity;BMP_temperature;BMP_pressure;BME280_temperature;BME280_humidity;BME280_pressure;Samples;Min_cycle;Max_cycle;Signal;HPM_P1;HPM_P2
2021/04/04 00:02:08;;;;;;;1.08;0.77;;;6.70;62.10;;;;;;5034490;28;20181;-71
2021/04/04 00:04:33;;;;;;;0.70;0.52;;;6.70;62.20;;;;;;5034642;28;20033;-71
2021/04/04 00:06:59;;;;;;;1.20;0.73;;;6.80;62.20;;;;;;5034502;28;20039;-71
2021/04/04 00:09:25;;;;;;;1.00;1.00;;;6.80;62.10;;;;;;5034565;28;20397;-70
2021/04/04 00:11:51;;;;;;;1.08;1.00;;;6.80;62.00;;;;;;5034463;28;20036;-71
2021/04/04 00:14:17;;;;;;;1.92;1.08;;;6.90;62.60;;;;;;5034214;28;20057;-71
2021/04/04 00:16:43;;;;;;;1.85;1.20;;;6.90;61.90;;;;;;5033893;28;20021;-71
2021/04/04 00:19:08;;;;;;;1.23;0.75;;;6.80;62.00;;;;;;5034218;28;20036;-71
2021/04/04 00:21:34;;;;;;;0.88;0.70;;;6.80;62.20;;;;;;5032935;28;20017;-71
2021/04/04 00:24:00;;;;;;;0.75;0.65;;;6.80;62.20;;;;;;5032883;28;20014;-71
2021/04/04 00:26:25;;;;;;;1.38;0.65;;;6.80;62.20;;;;;;5033977;28;20087;-71
2021/04/04 00:28:51;;;;;;;1.35;0.70;;;6.80;62.80;;;;;;5032921;28;20018;-71
2021/04/04 00:31:16;;;;;;;1.15;0.70;;;6.90;62.10;;;;;;5033510;28;20029;-71
2021/04/04 00:33:43;;;;;;;0.50;0.50;;;6.90;62.00;;;;;;5034001;28;20021;-71
2021/04/04 00:36:08;;;;;;;1.38;0.77;;;6.80;62.00;;;;;;5034050;28;20045;-71
2021/04/04 00:38:34;;;;;;;0.73;0.73;;;6.80;62.20;;;;;;5033919;28;20018;-71
2021/04/04 00:40:59;;;;;;;0.65;0.65;;;6.80;62.20;;;;;;5033729;28;20040;-71
2021/04/04 00:43:25;;;;;;;3.58;1.23;;;6.80;62.10;;;;;;5032496;28;20017;-71
2021/04/04 00:45:50;;;;;;;2.53;0.88;;;6.80;62.00;;;;;;5033335;28;20223;-71
2021/04/04 00:48:16;;;;;;;0.75;0.60;;;6.80;62.10;;;;;;5032346;28;20040;-71
2021/04/04 00:50:41;;;;;;;0.93;0.55;;;6.80;62.10;;;;;;5033605;28;20492;-71
2021/04/04 00:53:08;;;;;;;0.82;0.80;;;6.90;62.00;;;;;;5033652;28;20076;-71
2021/04/04 00:55:35;;;;;;;1.15;0.73;;;6.90;62.00;;;;;;5032592;28;20036;-71
2021/04/04 00:58:01;;;;;;;0.77;0.52;;;6.90;62.00;;;;;;5032364;28;20029;-71
2021/04/04 01:00:29;;;;;;;0.52;0.50;;;6.90;62.00;;;;;;5033025;28;20017;-71
2021/04/04 01:02:56;;;;;;;0.60;0.60;;;7.00;62.00;;;;;;5032779;28;20090;-71
2021/04/04 01:05:37;;;;;;;0.47;0.40;;;7.00;61.90;;;;;;5033354;28;20056;-71
2021/04/04 01:08:05;;;;;;;0.70;0.40;;;7.10;62.00;;;;;;5033389;28;20377;-71
2021/04/04 01:10:32;;;;;;;0.40;0.40;;;7.10;62.00;;;;;;5033257;28;20327;-71
2021/04/04 01:13:21;;;;;;;0.65;0.65;;;7.10;61.90;;;;;;5033498;28;20025;-71
2021/04/04 01:15:53;;;;;;;4.60;1.75;;;7.10;61.80;;;;;;5032982;28;20052;-71
2021/04/04 01:18:26;;;;;;;0.82;0.80;;;7.00;62.00;;;;;;5033281;28;20025;-71
2021/04/04 01:20:58;;;;;;;0.35;0.35;;;7.00;62.20;;;;;;5033120;28;20026;-71
2021/04/04 01:23:47;;;;;;;0.93;0.73;;;6.90;62.30;;;;;;5032992;28;20378;-71
2021/04/04 01:26:25;;;;;;;0.35;0.35;;;6.90;62.40;;;;;;5032980;28;20072;-71
2021/04/04 01:28:52;;;;;;;1.83;1.60;;;6.90;62.40;;;;;;5032508;28;20148;-71
2021/04/04 01:31:18;;;;;;;0.70;0.70;;;6.90;62.40;;;;;;5032838;28;20158;-71
2021/04/04 01:33:46;;;;;;;0.82;0.45;;;6.80;62.40;;;;;;5032842;28;20473;-71
2021/04/04 01:36:14;;;;;;;0.63;0.60;;;6.80;62.50;;;;;;5032840;28;20040;-71
2021/04/04 01:38:43;;;;;;;3.75;0.88;;;6.90;62.60;;;;;;5031443;28;20018;-71
2021/04/04 01:41:38;;;;;;;0.73;0.67;;;6.80;62.50;;;;;;5031425;28;20136;-71
2021/04/04 01:44:07;;;;;;;0.90;0.90;;;6.80;62.50;;;;;;5032324;28;20075;-71
2021/04/04 01:46:34;;;;;;;0.68;0.68;;;6.80;62.70;;;;;;5031202;28;20094;-71
2021/04/04 01:49:00;;;;;;;0.95;0.93;;;6.70;62.70;;;;;;5032551;28;20135;-71
2021/04/04 01:51:27;;;;;;;1.08;0.70;;;6.70;62.80;;;;;;5032606;28;20441;-71
2021/04/04 01:53:55;;;;;;;1.00;1.00;;;6.60;62.80;;;;;;5032593;28;20026;-71
2021/04/04 01:56:21;;;;;;;2.92;0.70;;;6.70;63.00;;;;;;5032363;28;20108;-71
2021/04/04 01:58:47;;;;;;;0.63;0.63;;;6.70;62.80;;;;;;5032070;28;20458;-71
2021/04/04 02:01:13;;;;;;;0.57;0.57;;;6.80;62.80;;;;;;5032536;28;20029;-71
2021/04/04 02:03:42;;;;;;;0.90;0.80;;;6.80;62.70;;;;;;5032466;28;20025;-71
2021/04/04 02:06:07;;;;;;;0.80;0.70;;;6.90;62.70;;;;;;5032423;28;20453;-71
2021/04/04 02:08:35;;;;;;;1.00;0.60;;;6.90;62.60;;;;;;5032260;28;20025;-71
2021/04/04 02:11:02;;;;;;;0.82;0.80;;;6.90;62.60;;;;;;5032201;28;20060;-71
2021/04/04 02:13:28;;;;;;;0.68;0.68;;;6.80;62.70;;;;;;5031582;28;20034;-71
2021/04/04 02:15:59;;;;;;;0.93;0.70;;;6.80;62.70;;;;;;5032429;28;20022;-71
2021/04/04 02:18:25;;;;;;;0.75;0.70;;;6.90;62.70;;;;;;5030967;28;20385;-71
2021/04/04 02:20:57;;;;;;;1.27;1.17;;;6.90;62.60;;;;;;5032235;28;20024;-71
2021/04/04 02:23:24;;;;;;;0.75;0.50;;;6.90;62.60;;;;;;5032235;28;20065;-71
2021/04/04 02:25:57;;;;;;;2.38;1.48;;;6.90;62.70;;;;;;5030849;28;20045;-71
2021/04/04 02:28:25;;;;;;;0.73;0.57;;;6.90;62.80;;;;;;5031784;28;20478;-71
2021/04/04 02:30:52;;;;;;;0.63;0.60;;;6.90;62.80;;;;;;5032173;28;20022;-71
2021/04/04 02:33:55;;;;;;;0.82;0.82;;;6.80;62.80;;;;;;5032255;28;20072;-71
2021/04/04 02:36:25;;;;;;;1.75;1.15;;;6.80;63.00;;;;;;4998692;28;20052;-71
2021/04/04 02:39:08;;;;;;;0.50;0.40;;;6.80;62.90;;;;;;5030821;28;20389;-71
2021/04/04 02:41:35;;;;;;;1.17;0.80;;;6.80;63.50;;;;;;5031786;28;20021;-71
2021/04/04 02:44:02;;;;;;;0.70;0.70;;;6.80;62.90;;;;;;5032207;28;20018;-71
2021/04/04 02:46:29;;;;;;;0.50;0.50;;;6.80;63.00;;;;;;5030768;28;20073;-71
2021/04/04 02:49:04;;;;;;;0.52;0.32;;;6.80;63.00;;;;;;5032082;28;20022;-71
2021/04/04 02:51:35;;;;;;;0.50;0.50;;;6.80;63.20;;;;;;5032171;28;20025;-71
2021/04/04 02:54:01;;;;;;;0.50;0.43;;;6.80;63.10;;;;;;5032140;28;20405;-71
2021/04/04 02:56:28;;;;;;;1.13;0.40;;;6.80;63.00;;;;;;5031603;28;20266;-71
2021/04/04 02:58:57;;;;;;;0.40;0.40;;;6.90;63.00;;;;;;5031942;28;20022;-71
2021/04/04 03:01:27;;;;;;;0.75;0.50;;;6.90;62.90;;;;;;5032016;28;20032;-71
2021/04/04 03:03:53;;;;;;;0.50;0.50;;;6.90;62.90;;;;;;5032024;28;20159;-71
2021/04/04 03:06:20;;;;;;;2.40;1.52;;;6.90;63.00;;;;;;5031870;28;20043;-71
2021/04/04 03:08:47;;;;;;;0.63;0.50;;;6.90;63.10;;;;;;5031923;28;20022;-71
2021/04/04 03:11:15;;;;;;;1.33;1.05;;;6.90;63.00;;;;;;5031444;28;20030;-71
2021/04/04 03:13:46;;;;;;;0.40;0.40;;;7.00;63.10;;;;;;5031656;28;20041;-71
2021/04/04 03:16:13;;;;;;;0.40;0.40;;;6.90;63.10;;;;;;5030552;28;20029;-71
2021/04/04 03:18:41;;;;;;;0.95;0.90;;;7.00;63.10;;;;;;5031897;28;20394;-72
2021/04/04 03:21:08;;;;;;;1.05;0.82;;;6.90;63.10;;;;;;5031806;28;20030;-71
2021/04/04 03:23:35;;;;;;;0.77;0.70;;;6.80;63.20;;;;;;5031790;28;20032;-71
2021/04/04 03:26:02;;;;;;;1.13;0.82;;;6.80;63.40;;;;;;5032132;28;20026;-71
2021/04/04 03:28:28;;;;;;;1.13;1.05;;;6.70;63.60;;;;;;5035366;28;20024;-71
2021/04/04 03:30:54;;;;;;;0.70;0.70;;;6.70;63.60;;;;;;5033998;28;20061;-71
2021/04/04 03:33:22;;;;;;;1.85;1.45;;;6.70;63.70;;;;;;5035266;28;20068;-71
2021/04/04 03:35:50;;;;;;;0.93;0.93;;;6.70;63.90;;;;;;5035210;28;20018;-71
2021/04/04 03:38:18;;;;;;;0.98;0.80;;;6.60;63.80;;;;;;5035120;28;20052;-71
2021/04/04 03:40:44;;;;;;;1.23;0.93;;;6.60;64.00;;;;;;5034639;28;20025;-71
2021/04/04 03:43:13;;;;;;;0.73;0.70;;;6.60;63.90;;;;;;5033767;28;20442;-71
2021/04/04 03:45:39;;;;;;;1.33;0.70;;;6.60;63.90;;;;;;5034989;28;20037;-71
2021/04/04 03:48:05;;;;;;;1.23;0.85;;;6.60;64.00;;;;;;5033660;28;20033;-71
2021/04/04 03:50:33;;;;;;;1.75;0.93;;;6.60;63.90;;;;;;5034945;28;20477;-71
2021/04/04 03:53:00;;;;;;;2.15;0.57;;;6.60;63.80;;;;;;5034910;28;20027;-71
2021/04/04 03:55:27;;;;;;;0.60;0.60;;;6.60;63.80;;;;;;5034481;28;20025;-71
2021/04/04 03:57:54;;;;;;;0.60;0.60;;;6.70;64.00;;;;;;5034862;28;20029;-71
2021/04/04 04:00:22;;;;;;;1.02;0.85;;;6.70;63.90;;;;;;5034751;28;20175;-71
2021/04/04 04:02:49;;;;;;;1.63;0.75;;;6.60;63.80;;;;;;5034713;28;20109;-71
2021/04/04 04:05:17;;;;;;;1.27;1.00;;;6.60;64.00;;;;;;5033319;28;20371;-71
2021/04/04 04:07:44;;;;;;;0.63;0.60;;;6.60;64.10;;;;;;5034647;28;20040;-71
2021/04/04 04:10:11;;;;;;;0.80;0.80;;;6.70;64.10;;;;;;5034229;28;20057;-71
2021/04/04 04:12:39;;;;;;;1.25;1.10;;;6.70;64.00;;;;;;5034579;28;20026;-71
2021/04/04 04:15:06;;;;;;;2.03;0.93;;;6.60;64.00;;;;;;5034289;28;20053;-71
2021/04/04 04:17:32;;;;;;;0.68;0.68;;;6.60;64.10;;;;;;5034545;28;20108;-71
2021/04/04 04:19:59;;;;;;;1.45;0.88;;;6.60;64.20;;;;;;5034357;28;20052;-70
2021/04/04 04:22:25;;;;;;;0.52;0.52;;;6.60;64.10;;;;;;5034407;28;20388;-70
2021/04/04 04:24:51;;;;;;;0.95;0.60;;;6.60;64.10;;;;;;5032557;28;20026;-71
2021/04/04 04:27:17;;;;;;;0.70;0.50;;;6.70;64.10;;;;;;5034158;28;20029;-71
2021/04/04 04:29:48;;;;;;;1.38;1.25;;;6.80;64.00;;;;;;5034107;28;20101;-71
2021/04/04 04:32:20;;;;;;;0.43;0.43;;;6.80;63.90;;;;;;5034087;28;20033;-71
2021/04/04 04:34:53;;;;;;;1.73;0.60;;;6.80;63.90;;;;;;5032710;28;20462;-71
2021/04/04 04:37:19;;;;;;;0.40;0.40;;;6.80;63.80;;;;;;5033635;28;20378;-71
2021/04/04 04:39:45;;;;;;;0.52;0.52;;;6.90;63.80;;;;;;5034040;28;20462;-71
2021/04/04 04:42:13;;;;;;;0.43;0.43;;;6.90;63.70;;;;;;5033916;28;20022;-70
2021/04/04 04:44:43;;;;;;;0.73;0.52;;;6.90;63.80;;;;;;5034002;28;20061;-71
2021/04/04 04:47:10;;;;;;;0.38;0.38;;;6.90;63.90;;;;;;5033753;28;20390;-71
2021/04/04 04:49:36;;;;;;;0.43;0.40;;;6.80;63.90;;;;;;5033907;28;20025;-72
2021/04/04 04:52:03;;;;;;;1.38;0.47;;;6.80;63.90;;;;;;5033366;28;20025;-71
2021/04/04 04:54:28;;;;;;;0.50;0.50;;;6.80;64.00;;;;;;5032421;28;20036;-71
2021/04/04 04:56:54;;;;;;;0.68;0.50;;;6.80;64.10;;;;;;5033676;28;20029;-71
2021/04/04 04:59:20;;;;;;;0.55;0.55;;;6.80;64.10;;;;;;5033510;28;20056;-71
2021/04/04 05:01:48;;;;;;;0.50;0.40;;;6.80;64.00;;;;;;5033619;28;20057;-71
2021/04/04 05:04:13;;;;;;;0.40;0.40;;;6.90;64.10;;;;;;5033504;28;20064;-71
2021/04/04 05:06:42;;;;;;;0.32;0.32;;;6.90;64.00;;;;;;5032958;28;20433;-71
2021/04/04 05:09:08;;;;;;;0.20;0.20;;;6.90;63.90;;;;;;5033410;28;20018;-71
2021/04/04 05:11:39;;;;;;;0.47;0.30;;;6.80;64.00;;;;;;5033331;28;20025;-71
2021/04/04 05:14:05;;;;;;;0.68;0.40;;;6.90;64.00;;;;;;5033101;28;20037;-71
2021/04/04 05:16:31;;;;;;;0.55;0.40;;;6.90;64.00;;;;;;5033250;28;20554;-71
2021/04/04 05:18:56;;;;;;;0.50;0.50;;;6.90;64.00;;;;;;5033174;28;20075;-71
2021/04/04 05:21:30;;;;;;;0.70;0.55;;;7.00;63.90;;;;;;5032743;28;20036;-71
2021/04/04 05:24:06;;;;;;;0.20;0.20;;;7.00;63.80;;;;;;5033221;28;20018;-71
2021/04/04 05:26:34;;;;;;;0.30;0.30;;;7.00;63.90;;;;;;5031711;28;20029;-71
2021/04/04 05:29:05;;;;;;;0.47;0.47;;;7.00;63.80;;;;;;5031817;28;20025;-71
2021/04/04 05:31:31;;;;;;;1.35;1.25;;;7.00;63.80;;;;;;5031671;28;20028;-71
2021/04/04 05:33:57;;;;;;;1.00;0.60;;;7.10;63.90;;;;;;5033327;28;20025;-71
2021/04/04 05:36:23;;;;;;;0.40;0.40;;;7.10;63.70;;;;;;5032447;28;20493;-72
2021/04/04 05:38:48;;;;;;;0.30;0.30;;;7.10;63.60;;;;;;5032808;28;20025;-71
2021/04/04 05:41:16;;;;;;;0.82;0.50;;;7.10;63.80;;;;;;5032825;28;20017;-71
2021/04/04 05:43:50;;;;;;;0.40;0.40;;;7.00;63.90;;;;;;5032852;28;20026;-71
2021/04/04 05:46:23;;;;;;;0.30;0.30;;;7.00;64.00;;;;;;5032720;28;20076;-71
2021/04/04 05:49:03;;;;;;;0.30;0.30;;;7.00;64.00;;;;;;5032437;28;20025;-71
2021/04/04 05:51:41;;;;;;;0.28;0.28;;;6.90;64.00;;;;;;5032302;28;20026;-71
2021/04/04 05:54:43;;;;;;;0.60;0.60;;;7.00;64.20;;;;;;5032704;28;20025;-71
2021/04/04 05:57:12;;;;;;;0.20;0.20;;;6.90;64.10;;;;;;5031346;28;20052;-71
2021/04/04 05:59:58;;;;;;;0.38;0.38;;;6.90;64.20;;;;;;5032634;28;20029;-71
2021/04/04 06:02:48;;;;;;;0.22;0.22;;;7.00;64.20;;;;;;5031337;28;20033;-71
2021/04/04 06:05:40;;;;;;;1.17;0.47;;;7.00;64.00;;;;;;5032066;28;20029;-70
2021/04/04 06:08:36;;;;;;;0.40;0.40;;;7.00;64.00;;;;;;5032315;28;20159;-70
2021/04/04 06:11:10;;;;;;;0.43;0.43;;;7.10;64.10;;;;;;5031835;28;20482;-70
2021/04/04 06:14:14;;;;;;;0.38;0.38;;;7.10;63.90;;;;;;5032148;28;20572;-70
2021/04/04 06:16:57;;;;;;;0.45;0.38;;;7.20;63.80;;;;;;5032304;28;20505;-70
2021/04/04 06:19:37;;;;;;;0.30;0.30;;;7.20;63.80;;;;;;5031993;28;20104;-70
2021/04/04 06:22:21;;;;;;;;;;;7.20;63.70;;;;;;5031606;28;20053;-70
2021/04/04 06:24:57;;;;;;;0.65;0.30;;;7.20;63.60;;;;;;5032258;28;19917;-70
2021/04/04 06:27:31;;;;;;;0.43;0.43;;;7.30;63.70;;;;;;5032166;28;20060;-70
2021/04/04 06:30:21;;;;;;;0.40;0.40;;;7.30;63.70;;;;;;5032323;28;20014;-70
2021/04/04 06:33:08;;;;;;;0.20;0.20;;;7.20;63.80;;;;;;5032296;28;20030;-70
2021/04/04 06:35:48;;;;;;;0.30;0.30;;;7.20;64.00;;;;;;5032187;28;20033;-69
2021/04/04 06:38:33;;;;;;;0.20;0.20;;;7.30;64.00;;;;;;5032341;28;20029;-70
2021/04/04 06:41:07;;;;;;;0.40;0.30;;;7.40;63.80;;;;;;5032194;28;20029;-70
2021/04/04 06:43:46;;;;;;;0.30;0.30;;;7.40;63.70;;;;;;5030743;28;20433;-70
2021/04/04 06:46:27;;;;;;;0.30;0.30;;;7.40;63.80;;;;;;5032401;28;20474;-69
2021/04/04 06:49:24;;;;;;;0.40;0.40;;;7.40;63.80;;;;;;5030279;28;20032;-70
2021/04/04 06:52:19;;;;;;;0.45;0.45;;;7.40;63.90;;;;;;5031978;28;20109;-70
2021/04/04 06:54:49;;;;;;;0.65;0.43;;;7.40;63.90;;;;;;5030754;28;20033;-70
2021/04/04 06:57:40;;;;;;;0.70;0.60;;;7.50;63.90;;;;;;5030799;28;20030;-70
2021/04/04 07:00:27;;;;;;;0.40;0.40;;;7.50;63.80;;;;;;5031908;28;20390;-70
2021/04/04 07:02:56;;;;;;;0.63;0.40;;;7.60;63.80;;;;;;5035334;28;20108;-70
2021/04/04 07:05:24;;;;;;;0.43;0.40;;;7.60;63.70;;;;;;5035775;28;20026;-70
2021/04/04 07:08:26;;;;;;;0.38;0.38;;;7.60;63.60;;;;;;5035626;28;20179;-70
2021/04/04 07:11:10;;;;;;;0.30;0.30;;;7.60;63.70;;;;;;5035655;28;20018;-70
2021/04/04 07:13:59;;;;;;;0.60;0.50;;;7.70;63.80;;;;;;5035487;28;20103;-71
2021/04/04 07:17:00;;;;;;;0.75;0.40;;;7.70;63.70;;;;;;5035630;28;20025;-71
2021/04/04 07:19:37;;;;;;;0.60;0.60;;;7.80;63.60;;;;;;5035793;28;20029;-71
2021/04/04 07:22:18;;;;;;;0.50;0.50;;;7.70;63.70;;;;;;5035425;28;20036;-71
2021/04/04 07:24:56;;;;;;;0.45;0.40;;;7.80;63.80;;;;;;5035441;28;20033;-70
2021/04/04 07:27:46;;;;;;;0.93;0.88;;;7.80;63.70;;;;;;5035375;28;20040;-71
2021/04/04 07:30:32;;;;;;;0.43;0.40;;;7.80;63.60;;;;;;5035382;28;20025;-71
2021/04/04 07:33:15;;;;;;;0.68;0.68;;;7.80;63.80;;;;;;5034848;28;20100;-71
2021/04/04 07:35:57;;;;;;;0.50;0.50;;;7.80;64.00;;;;;;5035163;28;20032;-71
2021/04/04 07:38:31;;;;;;;0.93;0.70;;;7.70;64.30;;;;;;5033892;28;20017;-71
2021/04/04 07:41:11;;;;;;;0.70;0.70;;;7.70;64.50;;;;;;5035080;28;20124;-71
2021/04/04 07:43:53;;;;;;;1.10;0.63;;;7.70;64.60;;;;;;5035060;28;20022;-72
2021/04/04 07:46:37;;;;;;;0.40;0.40;;;7.60;64.70;;;;;;5034495;28;20037;-71
2021/04/04 07:49:14;;;;;;;2.15;1.65;;;7.70;64.70;;;;;;5033409;28;20389;-71
2021/04/04 07:51:40;;;;;;;0.88;0.75;;;7.70;64.60;;;;;;5034926;28;20018;-71
2021/04/04 07:54:14;;;;;;;0.60;0.60;;;7.60;64.80;;;;;;5033457;28;20025;-71
2021/04/04 07:57:02;;;;;;;0.90;0.60;;;7.50;65.00;;;;;;5034751;28;20018;-71
2021/04/04 07:59:38;;;;;;;1.27;1.10;;;7.40;65.30;;;;;;5034710;28;20022;-71
2021/04/04 08:02:10;;;;;;;1.42;1.33;;;7.30;65.60;;;;;;5033012;28;20082;-71
2021/04/04 08:04:44;;;;;;;0.80;0.80;;;7.10;65.90;;;;;;5034638;28;20057;-71
2021/04/04 08:07:18;;;;;;;1.65;1.10;;;7.00;66.30;;;;;;5034496;28;20029;-71
2021/04/04 08:10:12;;;;;;;1.25;0.90;;;7.00;66.60;;;;;;5033198;28;20120;-71
2021/04/04 08:13:08;;;;;;;0.80;0.80;;;7.00;66.50;;;;;;5023700;28;20044;-71
2021/04/04 08:15:39;;;;;;;1.38;1.27;;;7.10;66.40;;;;;;5034023;28;20112;-72
2021/04/04 08:18:04;;;;;;;1.08;1.08;;;7.20;65.90;;;;;;5033009;28;20532;-71
2021/04/04 08:20:37;;;;;;;1.13;0.85;;;7.30;65.80;;;;;;5032997;28;20057;-71
2021/04/04 08:23:05;;;;;;;0.75;0.75;;;7.30;65.80;;;;;;5033001;28;20075;-71
2021/04/04 08:26:14;;;;;;;1.15;0.98;;;7.30;65.80;;;;;;5034037;28;20028;-71
2021/04/04 08:28:50;;;;;;;0.73;0.73;;;7.30;65.90;;;;;;5025891;28;20037;-69
2021/04/04 08:31:29;;;;;;;0.80;0.80;;;7.40;65.80;;;;;;5032352;28;20053;-70
2021/04/04 08:34:13;;;;;;;0.50;0.50;;;7.40;65.80;;;;;;5033979;28;20029;-70
2021/04/04 08:36:48;;;;;;;0.52;0.47;;;7.50;65.60;;;;;;5033997;28;20537;-70
2021/04/04 08:39:18;;;;;;;0.70;0.68;;;7.70;65.50;;;;;;5033823;28;20100;-67
2021/04/04 08:41:45;;;;;;;0.50;0.50;;;7.90;65.20;;;;;;5033853;28;20033;-71
2021/04/04 08:44:44;;;;;;;0.68;0.68;;;8.00;65.00;;;;;;5033242;28;20022;-71
2021/04/04 08:47:26;;;;;;;0.93;0.80;;;8.00;64.90;;;;;;5022326;28;20128;-71
2021/04/04 08:49:53;;;;;;;0.52;0.52;;;7.90;65.10;;;;;;5033716;28;20026;-71
2021/04/04 08:52:26;;;;;;;0.50;0.50;;;7.90;65.20;;;;;;5033588;28;20025;-71
2021/04/04 08:54:56;;;;;;;0.60;0.55;;;8.00;65.20;;;;;;5033629;28;20056;-71
2021/04/04 08:57:39;;;;;;;1.77;1.08;;;7.80;65.50;;;;;;5033583;28;20105;-71
2021/04/04 09:00:11;;;;;;;1.75;1.20;;;7.60;66.00;;;;;;5031732;28;20116;-71
2021/04/04 09:02:43;;;;;;;1.33;0.90;;;7.50;66.50;;;;;;5033523;28;20478;-71
2021/04/04 09:05:10;;;;;;;1.80;1.25;;;7.40;66.60;;;;;;5033467;28;20025;-71
2021/04/04 09:07:41;;;;;;;4.53;1.40;;;7.30;66.70;;;;;;5033278;28;20037;-71
2021/04/04 09:10:10;;;;;;;1.65;1.20;;;7.30;66.80;;;;;;5033423;28;20108;-72
2021/04/04 09:12:37;;;;;;;;;;;7.30;66.80;;;;;;5032093;28;20059;-71
2021/04/04 09:15:08;;;;;;;0.73;0.73;;;7.30;66.60;;;;;;5033150;28;19917;-71
2021/04/04 09:17:34;;;;;;;1.52;1.10;;;7.40;66.40;;;;;;5033203;28;20108;-71
2021/04/04 09:20:04;;;;;;;2.20;1.20;;;7.60;66.00;;;;;;5033100;28;20029;-71
2021/04/04 09:22:31;;;;;;;1.67;1.15;;;7.60;65.90;;;;;;5031781;28;20017;-71
2021/04/04 09:25:00;;;;;;;0.93;0.88;;;7.60;66.00;;;;;;5032447;28;20116;-71
2021/04/04 09:27:30;;;;;;;1.20;1.10;;;7.60;66.00;;;;;;5032507;28;20029;-70
2021/04/04 09:29:56;;;;;;;;;;;7.70;65.90;;;;;;5033429;28;20335;-71
2021/04/04 09:32:42;;;;;;;0.70;0.70;;;7.80;65.60;;;;;;5032928;28;19905;-71
2021/04/04 09:35:14;;;;;;;0.80;0.80;;;7.80;65.50;;;;;;5032940;28;20021;-71
2021/04/04 09:37:41;;;;;;;0.82;0.70;;;7.80;65.80;;;;;;5032939;28;20112;-71
2021/04/04 09:40:07;;;;;;;0.57;0.57;;;7.70;65.90;;;;;;5032846;28;20105;-71
2021/04/04 09:42:33;;;;;;;1.10;1.00;;;7.70;66.00;;;;;;5030986;28;20489;-71
2021/04/04 09:45:12;;;;;;;0.98;0.98;;;7.70;66.10;;;;;;5032723;28;20025;-71
2021/04/04 09:47:37;;;;;;;0.98;0.70;;;7.70;66.00;;;;;;5032584;28;20068;-70
2021/04/04 09:50:18;;;;;;;1.33;1.20;;;7.60;66.10;;;;;;5032639;28;20014;-71
2021/04/04 09:52:44;;;;;;;0.65;0.65;;;7.70;66.10;;;;;;5032644;28;20052;-71
2021/04/04 09:55:21;;;;;;;1.23;0.90;;;7.90;65.90;;;;;;5032557;28;20049;-71
2021/04/04 09:57:52;;;;;;;0.68;0.68;;;7.90;65.70;;;;;;5030889;28;20018;-71
2021/04/04 10:00:26;;;;;;;0.95;0.93;;;7.90;65.70;;;;;;5032507;28;20056;-70
2021/04/04 10:02:55;;;;;;;0.90;0.90;;;8.00;65.60;;;;;;5031275;28;20022;-71
2021/04/04 10:05:38;;;;;;;0.70;0.70;;;8.10;65.50;;;;;;5032443;28;20014;-71
2021/04/04 10:08:23;;;;;;;0.60;0.60;;;8.10;65.40;;;;;;5032475;28;20291;-71
2021/04/04 10:10:57;;;;;;;0.60;0.52;;;8.20;65.30;;;;;;5031968;28;20051;-71
2021/04/04 10:13:27;;;;;;;1.45;0.63;;;8.30;65.20;;;;;;5032224;28;20393;-71
2021/04/04 10:15:54;;;;;;;1.70;0.68;;;8.30;65.00;;;;;;5032364;28;20067;-71
2021/04/04 10:18:22;;;;;;;0.93;0.90;;;8.40;65.00;;;;;;5032207;28;20057;-70
2021/04/04 10:20:55;;;;;;;1.50;1.40;;;8.30;65.10;;;;;;5032251;28;20021;-71
2021/04/04 10:23:32;;;;;;;0.95;0.73;;;8.20;65.10;;;;;;5032295;28;20029;-70
2021/04/04 10:26:03;;;;;;;1.02;0.93;;;8.10;65.50;;;;;;5031834;28;20029;-71
2021/04/04 10:28:46;;;;;;;1.98;1.13;;;8.20;65.50;;;;;;5032171;28;20037;-71
2021/04/04 10:31:13;;;;;;;0.77;0.77;;;8.30;65.20;;;;;;5030956;28;20033;-70
2021/04/04 10:33:38;;;;;;;1.15;0.93;;;8.30;65.00;;;;;;5032095;28;20021;-70
2021/04/04 10:36:12;;;;;;;0.75;0.75;;;8.40;64.80;;;;;;5034963;28;20037;-70
2021/04/04 10:38:38;;;;;;;0.55;0.55;;;8.60;64.50;;;;;;5036148;28;20425;-70
2021/04/04 10:41:03;;;;;;;0.50;0.50;;;8.70;64.30;;;;;;5035775;28;20030;-70
2021/04/04 10:43:40;;;;;;;0.73;0.70;;;8.80;64.20;;;;;;5036091;28;20070;-70
2021/04/04 10:46:10;;;;;;;0.55;0.55;;;8.70;64.10;;;;;;5036032;28;20029;-71
2021/04/04 10:48:41;;;;;;;1.50;1.40;;;8.80;65.00;;;;;;5035946;28;20014;-71
2021/04/04 10:51:11;;;;;;;0.90;0.90;;;8.90;64.10;;;;;;5036045;28;20477;-71
2021/04/04 10:53:37;;;;;;;1.42;1.13;;;8.90;64.00;;;;;;5034546;28;20033;-71
2021/04/04 10:56:04;;;;;;;0.98;0.68;;;8.80;64.00;;;;;;5035440;28;20022;-71
2021/04/04 10:58:30;;;;;;;0.70;0.70;;;8.70;64.30;;;;;;5035700;28;20043;-71
2021/04/04 11:00:57;;;;;;;0.60;0.60;;;8.80;64.30;;;;;;5035861;28;20025;-71
2021/04/04 11:03:23;;;;;;;1.15;0.80;;;9.00;63.90;;;;;;5035796;28;20036;-71
2021/04/04 11:05:49;;;;;;;2.17;0.55;;;9.10;63.60;;;;;;5035557;28;20413;-71
2021/04/04 11:08:19;;;;;;;0.98;0.82;;;9.30;63.30;;;;;;5035536;28;20500;-71
2021/04/04 11:10:45;;;;;;;0.90;0.90;;;9.40;63.10;;;;;;5035221;28;20310;-70
2021/04/04 11:13:15;;;;;;;1.40;1.25;;;9.50;63.00;;;;;;5035513;28;20032;-70
2021/04/04 11:16:00;;;;;;;1.30;0.93;;;9.40;62.90;;;;;;5035572;28;20397;-71
2021/04/04 11:18:34;;;;;;;1.58;0.80;;;9.30;63.30;;;;;;5035510;28;20079;-71
2021/04/04 11:21:03;;;;;;;1.15;1.08;;;9.30;64.20;;;;;;5035497;28;20029;-70
2021/04/04 11:23:30;;;;;;;0.68;0.68;;;9.40;63.40;;;;;;5035031;28;20032;-70
2021/04/04 11:25:56;;;;;;;2.47;1.10;;;9.50;63.10;;;;;;5035258;28;20021;-71
2021/04/04 11:28:25;;;;;;;1.25;1.20;;;9.50;63.00;;;;;;5035671;28;20036;-71
2021/04/04 11:30:52;;;;;;;1.42;1.30;;;9.30;63.10;;;;;;5035295;28;20030;-71
2021/04/04 11:33:24;;;;;;;2.65;1.13;;;9.20;63.40;;;;;;5035279;28;20056;-70
2021/04/04 11:36:05;;;;;;;2.45;0.90;;;9.30;63.40;;;;;;5035229;28;20129;-71
2021/04/04 11:38:34;;;;;;;1.92;1.30;;;9.30;63.30;;;;;;5034691;28;20018;-71
2021/04/04 11:41:12;;;;;;;2.72;1.40;;;9.50;63.10;;;;;;5035119;28;20120;-70
2021/04/04 11:43:39;;;;;;;2.00;1.25;;;9.40;62.90;;;;;;5034975;28;20027;-71
2021/04/04 11:46:05;;;;;;;1.55;1.23;;;9.40;63.00;;;;;;5022031;28;20413;-71
2021/04/04 11:48:39;;;;;;;3.10;1.05;;;9.50;62.80;;;;;;5012089;28;20026;-69
2021/04/04 11:51:10;;;;;;;1.73;1.33;;;9.50;62.70;;;;;;5012419;28;20021;-71
2021/04/04 11:53:44;;;;;;;1.85;1.10;;;9.70;62.30;;;;;;5012082;28;20083;-70
2021/04/04 11:56:30;;;;;;;2.05;1.33;;;9.80;62.00;;;;;;5012401;28;20026;-70
2021/04/04 11:58:55;;;;;;;2.58;1.20;;;9.80;62.00;;;;;;5011809;28;20398;-70
2021/04/04 12:01:21;;;;;;;1.30;1.08;;;9.80;62.30;;;;;;5010873;28;20467;-69
2021/04/04 12:03:46;;;;;;;2.08;1.83;;;9.90;62.10;;;;;;5012184;28;20032;-70
2021/04/04 12:06:15;;;;;;;1.10;1.00;;;10.10;61.90;;;;;;5027204;28;20045;-70
2021/04/04 12:08:41;;;;;;;1.55;1.38;;;10.40;61.30;;;;;;5011557;28;20080;-70
2021/04/04 12:11:07;;;;;;;1.15;1.05;;;10.50;61.20;;;;;;5026971;28;20049;-70
2021/04/04 12:13:32;;;;;;;1.05;0.90;;;10.70;61.00;;;;;;5011862;28;20096;-71
2021/04/04 12:15:59;;;;;;;2.05;1.23;;;10.80;60.70;;;;;;5012154;28;20451;-71
2021/04/04 12:18:24;;;;;;;2.40;1.40;;;10.90;60.60;;;;;;5018023;28;20025;-71
2021/04/04 12:20:50;;;;;;;2.03;1.10;;;10.60;60.90;;;;;;5028167;28;20021;-71
2021/04/04 12:23:16;;;;;;;1.80;1.60;;;10.60;61.30;;;;;;5031995;28;20025;-71
2021/04/04 12:25:42;;;;;;;3.10;1.48;;;10.60;61.90;;;;;;5034091;28;20029;-71
2021/04/04 12:28:07;;;;;;;2.08;1.77;;;10.70;60.90;;;;;;5033672;28;20022;-71
2021/04/04 12:30:34;;;;;;;1.80;1.42;;;10.80;60.80;;;;;;5034128;28;20029;-71
2021/04/04 12:33:14;;;;;;;1.63;1.20;;;10.70;60.80;;;;;;5033966;28;20494;-71
2021/04/04 12:35:50;;;;;;;4.15;1.45;;;10.50;61.40;;;;;;5033542;28;20201;-71
2021/04/04 12:38:26;;;;;;;1.90;1.70;;;10.50;61.60;;;;;;5034169;28;20060;-72
2021/04/04 12:40:53;;;;;;;2.28;1.35;;;10.70;61.40;;;;;;5033922;28;20013;-69
2021/04/04 12:43:19;;;;;;;2.63;1.45;;;10.70;61.00;;;;;;5033917;28;20059;-71
2021/04/04 12:45:44;;;;;;;1.60;1.27;;;10.70;61.10;;;;;;5033697;28;20106;-70
2021/04/04 12:48:18;;;;;;;2.40;1.40;;;10.60;61.90;;;;;;5034083;28;20420;-71
2021/04/04 12:50:55;;;;;;;2.00;1.40;;;10.60;61.10;;;;;;5033266;28;20021;-71
2021/04/04 12:53:29;;;;;;;3.65;1.60;;;10.50;61.30;;;;;;5033244;28;20114;-71
2021/04/04 12:55:55;;;;;;;2.40;1.48;;;10.60;61.30;;;;;;5033693;28;20021;-71
2021/04/04 12:58:30;;;;;;;1.42;1.33;;;10.80;60.70;;;;;;5032455;28;20486;-71
2021/04/04 13:00:55;;;;;;;2.25;1.52;;;10.90;60.40;;;;;;5033562;28;20032;-71
2021/04/04 13:03:21;;;;;;;1.05;0.95;;;11.10;60.30;;;;;;5033416;28;20381;-71
2021/04/04 13:05:52;;;;;;;2.10;1.33;;;11.20;60.10;;;;;;5031623;28;20053;-72
2021/04/04 13:08:22;;;;;;;2.70;1.60;;;11.40;59.80;;;;;;5033420;28;20465;-71
2021/04/04 13:11:10;;;;;;;1.65;1.40;;;11.50;59.60;;;;;;5032099;28;20025;-71
2021/04/04 13:13:39;;;;;;;1.40;1.30;;;11.80;59.40;;;;;;5031905;28;20081;-71
2021/04/04 13:16:06;;;;;;;1.60;1.50;;;11.90;59.30;;;;;;5033377;28;20036;-71
2021/04/04 13:18:34;;;;;;;1.35;1.25;;;12.00;59.00;;;;;;5033326;28;20029;-71
2021/04/04 13:21:12;;;;;;;1.40;1.20;;;12.00;59.20;;;;;;5032780;28;20112;-72
2021/04/04 13:23:41;;;;;;;1.80;1.10;;;11.90;59.40;;;;;;5033192;28;20087;-72